sensor_id;sensor_type;location;lat;lon;timestamp;P1;durP1;ratioP1;P2;durP2;ratioP2
12725;SDS011;6427;49.754;6.106;2023-02-01T00:00:12;17.50;;;10.27;;
12725;SDS011;6427;49.754;6.106;2023-02-01T00:02:39;17.43;;;9.47;;
12725;SDS011;6427;49.754;6.106;2023-02-01T00:05:08;16.20;;;8.80;;
12725;SDS011;6427;49.754;6.106;2023-02-01T00:07:35;14.00;;;9.00;;
12725;SDS011;6427;49.754;6.106;2023-02-01T00:10:03;17.63;;;8.40;;
12725;SDS011;6427;49.754;6.106;2023-02-01T00:12:31;14.27;;;9.53;;
12725;SDS011;6427;49.754;6.106;2023-02-01T00:14:58;18.53;;;9.47;;
12725;SDS011;6427;49.754;6.106;2023-02-01T00:17:27;19.50;;;11.40;;
12725;SDS011;6427;49.754;6.106;2023-02-01T00:19:54;16.57;;;9.50;;
12725;SDS011;6427;49.754;6.106;2023-02-01T00:22:22;16.00;;;8.83;;
12725;SDS011;6427;49.754;6.106;2023-02-01T00:24:50;15.43;;;8.83;;
12725;SDS011;6427;49.754;6.106;2023-02-01T00:27:19;18.65;;;10.63;;
12725;SDS011;6427;49.754;6.106;2023-02-01T00:29:46;15.93;;;8.77;;
12725;SDS011;6427;49.754;6.106;2023-02-01T00:32:15;12.80;;;7.60;;
12725;SDS011;6427;49.754;6.106;2023-02-01T00:34:43;10.80;;;7.47;;
12725;SDS011;6427;49.754;6.106;2023-02-01T00:37:11;12.43;;;8.27;;
12725;SDS011;6427;49.754;6.106;2023-02-01T00:39:38;13.63;;;8.57;;
12725;SDS011;6427;49.754;6.106;2023-02-01T00:42:06;14.30;;;8.07;;
12725;SDS011;6427;49.754;6.106;2023-02-01T00:44:34;14.03;;;8.07;;
12725;SDS011;6427;49.754;6.106;2023-02-01T00:47:02;15.07;;;9.20;;
12725;SDS011;6427;49.754;6.106;2023-02-01T00:49:30;15.37;;;8.53;;
12725;SDS011;6427;49.754;6.106;2023-02-01T00:51:57;15.03;;;8.20;;
12725;SDS011;6427;49.754;6.106;2023-02-01T00:54:25;13.13;;;7.80;;
12725;SDS011;6427;49.754;6.106;2023-02-01T00:56:53;16.30;;;8.27;;
12725;SDS011;6427;49.754;6.106;2023-02-01T00:59:21;12.60;;;7.90;;
12725;SDS011;6427;49.754;6.106;2023-02-01T01:01:48;14.90;;;8.50;;
12725;SDS011;6427;49.754;6.106;2023-02-01T01:04:17;14.90;;;8.70;;
12725;SDS011;6427;49.754;6.106;2023-02-01T01:06:45;14.70;;;8.40;;
12725;SDS011;6427;49.754;6.106;2023-02-01T01:09:12;18.50;;;8.17;;
12725;SDS011;6427;49.754;6.106;2023-02-01T01:11:40;16.10;;;8.33;;
12725;SDS011;6427;49.754;6.106;2023-02-01T01:14:07;15.47;;;8.63;;
12725;SDS011;6427;49.754;6.106;2023-02-01T01:16:35;17.43;;;8.37;;
12725;SDS011;6427;49.754;6.106;2023-02-01T01:19:04;18.57;;;9.83;;
12725;SDS011;6427;49.754;6.106;2023-02-01T01:21:32;16.40;;;8.90;;
12725;SDS011;6427;49.754;6.106;2023-02-01T01:24:00;17.50;;;8.57;;
12725;SDS011;6427;49.754;6.106;2023-02-01T01:26:29;15.47;;;8.83;;
12725;SDS011;6427;49.754;6.106;2023-02-01T01:28:57;14.93;;;8.13;;
12725;SDS011;6427;49.754;6.106;2023-02-01T01:31:26;17.00;;;9.47;;
12725;SDS011;6427;49.754;6.106;2023-02-01T01:33:54;20.13;;;9.20;;
12725;SDS011;6427;49.754;6.106;2023-02-01T01:36:21;16.73;;;9.30;;
12725;SDS011;6427;49.754;6.106;2023-02-01T01:38:50;14.67;;;7.90;;
12725;SDS011;6427;49.754;6.106;2023-02-01T01:41:19;13.93;;;8.23;;
12725;SDS011;6427;49.754;6.106;2023-02-01T01:43:47;18.03;;;8.57;;
12725;SDS011;6427;49.754;6.106;2023-02-01T01:46:19;14.27;;;8.10;;
12725;SDS011;6427;49.754;6.106;2023-02-01T01:48:50;16.47;;;8.63;;
12725;SDS011;6427;49.754;6.106;2023-02-01T01:51:20;17.73;;;8.77;;
12725;SDS011;6427;49.754;6.106;2023-02-01T01:53:50;16.77;;;8.10;;
12725;SDS011;6427;49.754;6.106;2023-02-01T01:56:16;20.57;;;8.17;;
12725;SDS011;6427;49.754;6.106;2023-02-01T01:58:43;15.10;;;8.33;;
12725;SDS011;6427;49.754;6.106;2023-02-01T02:01:12;14.83;;;7.40;;
12725;SDS011;6427;49.754;6.106;2023-02-01T02:03:40;13.93;;;8.30;;
12725;SDS011;6427;49.754;6.106;2023-02-01T02:06:14;20.97;;;11.90;;
12725;SDS011;6427;49.754;6.106;2023-02-01T02:08:44;15.57;;;9.57;;
12725;SDS011;6427;49.754;6.106;2023-02-01T02:11:12;14.13;;;7.80;;
12725;SDS011;6427;49.754;6.106;2023-02-01T02:13:40;15.80;;;7.13;;
12725;SDS011;6427;49.754;6.106;2023-02-01T02:16:23;14.97;;;7.47;;
12725;SDS011;6427;49.754;6.106;2023-02-01T02:19:10;16.47;;;7.67;;
12725;SDS011;6427;49.754;6.106;2023-02-01T02:24:45;14.13;;;6.90;;
12725;SDS011;6427;49.754;6.106;2023-02-01T02:38:05;17.03;;;7.23;;
12725;SDS011;6427;49.754;6.106;2023-02-01T02:40:36;13.57;;;7.13;;
12725;SDS011;6427;49.754;6.106;2023-02-01T02:43:10;15.80;;;7.90;;
12725;SDS011;6427;49.754;6.106;2023-02-01T02:48:44;18.80;;;9.70;;
12725;SDS011;6427;49.754;6.106;2023-02-01T02:51:23;16.35;;;9.48;;
12725;SDS011;6427;49.754;6.106;2023-02-01T02:54:15;19.20;;;10.00;;
12725;SDS011;6427;49.754;6.106;2023-02-01T02:57:03;17.97;;;8.83;;
12725;SDS011;6427;49.754;6.106;2023-02-01T02:59:48;16.27;;;8.83;;
12725;SDS011;6427;49.754;6.106;2023-02-01T03:02:35;15.10;;;8.13;;
12725;SDS011;6427;49.754;6.106;2023-02-01T03:05:20;19.40;;;10.93;;
12725;SDS011;6427;49.754;6.106;2023-02-01T03:07:50;18.55;;;10.48;;
12725;SDS011;6427;49.754;6.106;2023-02-01T03:10:45;14.03;;;8.20;;
12725;SDS011;6427;49.754;6.106;2023-02-01T03:13:40;14.27;;;7.83;;
12725;SDS011;6427;49.754;6.106;2023-02-01T03:16:25;21.03;;;8.20;;
12725;SDS011;6427;49.754;6.106;2023-02-01T03:21:23;16.17;;;7.50;;
12725;SDS011;6427;49.754;6.106;2023-02-01T03:23:50;19.57;;;8.67;;
12725;SDS011;6427;49.754;6.106;2023-02-01T03:26:17;16.83;;;8.63;;
12725;SDS011;6427;49.754;6.106;2023-02-01T03:28:48;13.37;;;7.97;;
12725;SDS011;6427;49.754;6.106;2023-02-01T03:31:15;18.33;;;8.57;;
12725;SDS011;6427;49.754;6.106;2023-02-01T03:33:42;16.70;;;8.20;;
12725;SDS011;6427;49.754;6.106;2023-02-01T03:36:26;12.63;;;8.60;;
12725;SDS011;6427;49.754;6.106;2023-02-01T03:39:00;17.93;;;8.03;;
12725;SDS011;6427;49.754;6.106;2023-02-01T03:41:33;20.00;;;7.83;;
12725;SDS011;6427;49.754;6.106;2023-02-01T03:44:08;19.43;;;8.27;;
12725;SDS011;6427;49.754;6.106;2023-02-01T03:46:52;13.00;;;8.27;;
12725;SDS011;6427;49.754;6.106;2023-02-01T03:49:25;16.35;;;9.80;;
12725;SDS011;6427;49.754;6.106;2023-02-01T03:51:49;13.83;;;8.50;;
12725;SDS011;6427;49.754;6.106;2023-02-01T03:54:17;17.00;;;8.30;;
12725;SDS011;6427;49.754;6.106;2023-02-01T03:56:45;14.57;;;7.93;;
12725;SDS011;6427;49.754;6.106;2023-02-01T03:59:12;18.53;;;8.27;;
12725;SDS011;6427;49.754;6.106;2023-02-01T04:01:40;16.83;;;9.60;;
12725;SDS011;6427;49.754;6.106;2023-02-01T04:04:08;19.70;;;9.35;;
12725;SDS011;6427;49.754;6.106;2023-02-01T04:06:35;20.10;;;10.07;;
12725;SDS011;6427;49.754;6.106;2023-02-01T04:09:03;16.90;;;7.77;;
12725;SDS011;6427;49.754;6.106;2023-02-01T04:11:30;17.20;;;6.87;;
12725;SDS011;6427;49.754;6.106;2023-02-01T04:13:58;19.47;;;7.13;;
12725;SDS011;6427;49.754;6.106;2023-02-01T04:16:25;14.33;;;7.20;;
12725;SDS011;6427;49.754;6.106;2023-02-01T04:18:54;19.25;;;8.73;;
12725;SDS011;6427;49.754;6.106;2023-02-01T04:21:21;15.00;;;8.27;;
12725;SDS011;6427;49.754;6.106;2023-02-01T04:23:49;13.33;;;7.53;;
12725;SDS011;6427;49.754;6.106;2023-02-01T04:26:17;15.53;;;6.90;;
12725;SDS011;6427;49.754;6.106;2023-02-01T04:28:45;14.13;;;6.50;;
12725;SDS011;6427;49.754;6.106;2023-02-01T04:31:12;14.47;;;5.83;;
12725;SDS011;6427;49.754;6.106;2023-02-01T04:33:40;14.20;;;6.07;;
12725;SDS011;6427;49.754;6.106;2023-02-01T04:36:07;16.87;;;7.43;;
12725;SDS011;6427;49.754;6.106;2023-02-01T04:38:35;16.65;;;7.75;;
12725;SDS011;6427;49.754;6.106;2023-02-01T04:41:02;17.90;;;6.23;;
12725;SDS011;6427;49.754;6.106;2023-02-01T04:43:30;20.23;;;6.50;;
12725;SDS011;6427;49.754;6.106;2023-02-01T04:45:58;16.50;;;5.57;;
12725;SDS011;6427;49.754;6.106;2023-02-01T04:48:26;13.13;;;5.23;;
12725;SDS011;6427;49.754;6.106;2023-02-01T04:50:53;18.23;;;4.90;;
12725;SDS011;6427;49.754;6.106;2023-02-01T04:53:21;14.87;;;5.20;;
12725;SDS011;6427;49.754;6.106;2023-02-01T04:55:48;14.20;;;4.87;;
12725;SDS011;6427;49.754;6.106;2023-02-01T04:58:16;16.17;;;5.57;;
12725;SDS011;6427;49.754;6.106;2023-02-01T05:00:43;16.33;;;4.40;;
12725;SDS011;6427;49.754;6.106;2023-02-01T05:03:11;17.33;;;4.60;;
12725;SDS011;6427;49.754;6.106;2023-02-01T05:05:39;19.83;;;8.07;;
12725;SDS011;6427;49.754;6.106;2023-02-01T05:08:07;12.95;;;5.47;;
12725;SDS011;6427;49.754;6.106;2023-02-01T05:10:34;14.83;;;4.60;;
12725;SDS011;6427;49.754;6.106;2023-02-01T05:13:02;18.77;;;4.37;;
12725;SDS011;6427;49.754;6.106;2023-02-01T05:15:49;13.90;;;4.03;;
12725;SDS011;6427;49.754;6.106;2023-02-01T05:18:15;17.67;;;4.67;;
12725;SDS011;6427;49.754;6.106;2023-02-01T05:20:43;10.30;;;4.17;;
12725;SDS011;6427;49.754;6.106;2023-02-01T05:23:11;13.77;;;4.20;;
12725;SDS011;6427;49.754;6.106;2023-02-01T05:25:39;18.50;;;4.90;;
12725;SDS011;6427;49.754;6.106;2023-02-01T05:28:06;14.70;;;4.63;;
12725;SDS011;6427;49.754;6.106;2023-02-01T05:30:34;17.63;;;3.80;;
12725;SDS011;6427;49.754;6.106;2023-02-01T05:33:02;13.73;;;4.27;;
12725;SDS011;6427;49.754;6.106;2023-02-01T05:35:29;18.10;;;4.40;;
12725;SDS011;6427;49.754;6.106;2023-02-01T05:37:57;15.83;;;3.60;;
12725;SDS011;6427;49.754;6.106;2023-02-01T05:40:24;11.97;;;3.63;;
12725;SDS011;6427;49.754;6.106;2023-02-01T05:42:52;18.97;;;3.80;;
12725;SDS011;6427;49.754;6.106;2023-02-01T05:45:20;10.87;;;3.93;;
12725;SDS011;6427;49.754;6.106;2023-02-01T05:47:48;16.40;;;3.37;;
12725;SDS011;6427;49.754;6.106;2023-02-01T05:50:16;20.50;;;4.60;;
12725;SDS011;6427;49.754;6.106;2023-02-01T05:52:44;14.90;;;3.83;;
12725;SDS011;6427;49.754;6.106;2023-02-01T05:55:12;18.30;;;3.77;;
12725;SDS011;6427;49.754;6.106;2023-02-01T05:57:39;16.13;;;3.20;;
12725;SDS011;6427;49.754;6.106;2023-02-01T06:00:08;12.27;;;2.70;;
12725;SDS011;6427;49.754;6.106;2023-02-01T06:02:35;14.00;;;2.87;;
12725;SDS011;6427;49.754;6.106;2023-02-01T06:05:03;16.03;;;2.87;;
12725;SDS011;6427;49.754;6.106;2023-02-01T06:07:31;18.63;;;3.40;;
12725;SDS011;6427;49.754;6.106;2023-02-01T06:09:59;10.93;;;3.43;;
12725;SDS011;6427;49.754;6.106;2023-02-01T06:12:26;20.70;;;4.03;;
12725;SDS011;6427;49.754;6.106;2023-02-01T06:14:54;12.03;;;3.23;;
12725;SDS011;6427;49.754;6.106;2023-02-01T06:17:22;12.30;;;2.63;;
12725;SDS011;6427;49.754;6.106;2023-02-01T06:19:49;14.30;;;2.47;;
12725;SDS011;6427;49.754;6.106;2023-02-01T06:22:17;17.07;;;2.87;;
12725;SDS011;6427;49.754;6.106;2023-02-01T06:24:46;15.60;;;2.93;;
12725;SDS011;6427;49.754;6.106;2023-02-01T06:27:14;12.00;;;3.63;;
12725;SDS011;6427;49.754;6.106;2023-02-01T06:29:42;11.90;;;3.43;;
12725;SDS011;6427;49.754;6.106;2023-02-01T06:32:10;19.47;;;3.50;;
12725;SDS011;6427;49.754;6.106;2023-02-01T06:34:38;11.90;;;3.50;;
12725;SDS011;6427;49.754;6.106;2023-02-01T06:37:06;13.20;;;3.17;;
12725;SDS011;6427;49.754;6.106;2023-02-01T06:39:34;14.70;;;3.20;;
12725;SDS011;6427;49.754;6.106;2023-02-01T06:42:01;17.60;;;3.43;;
12725;SDS011;6427;49.754;6.106;2023-02-01T06:44:29;17.27;;;4.12;;
12725;SDS011;6427;49.754;6.106;2023-02-01T06:46:56;11.67;;;3.17;;
12725;SDS011;6427;49.754;6.106;2023-02-01T06:49:24;11.87;;;2.93;;
12725;SDS011;6427;49.754;6.106;2023-02-01T06:51:52;16.00;;;3.10;;
12725;SDS011;6427;49.754;6.106;2023-02-01T06:54:20;13.27;;;2.57;;
12725;SDS011;6427;49.754;6.106;2023-02-01T06:56:47;20.50;;;4.03;;
12725;SDS011;6427;49.754;6.106;2023-02-01T06:59:15;23.08;;;3.80;;
12725;SDS011;6427;49.754;6.106;2023-02-01T07:01:43;13.90;;;3.43;;
12725;SDS011;6427;49.754;6.106;2023-02-01T07:04:11;12.13;;;2.63;;
12725;SDS011;6427;49.754;6.106;2023-02-01T07:06:39;10.80;;;2.60;;
12725;SDS011;6427;49.754;6.106;2023-02-01T07:09:07;14.10;;;3.20;;
12725;SDS011;6427;49.754;6.106;2023-02-01T07:11:34;13.40;;;3.10;;
12725;SDS011;6427;49.754;6.106;2023-02-01T07:14:02;15.03;;;3.50;;
12725;SDS011;6427;49.754;6.106;2023-02-01T07:16:29;13.17;;;3.00;;
12725;SDS011;6427;49.754;6.106;2023-02-01T07:18:57;13.57;;;3.00;;
12725;SDS011;6427;49.754;6.106;2023-02-01T07:21:24;18.87;;;2.67;;
12725;SDS011;6427;49.754;6.106;2023-02-01T07:23:52;12.73;;;3.00;;
12725;SDS011;6427;49.754;6.106;2023-02-01T07:26:21;10.50;;;2.73;;
12725;SDS011;6427;49.754;6.106;2023-02-01T07:28:48;13.20;;;2.80;;
12725;SDS011;6427;49.754;6.106;2023-02-01T07:31:17;13.27;;;3.33;;
12725;SDS011;6427;49.754;6.106;2023-02-01T07:33:47;14.00;;;2.83;;
12725;SDS011;6427;49.754;6.106;2023-02-01T07:36:19;16.27;;;3.47;;
12725;SDS011;6427;49.754;6.106;2023-02-01T07:38:47;20.47;;;3.40;;
12725;SDS011;6427;49.754;6.106;2023-02-01T07:41:15;14.63;;;2.73;;
12725;SDS011;6427;49.754;6.106;2023-02-01T07:43:42;18.07;;;4.33;;
12725;SDS011;6427;49.754;6.106;2023-02-01T07:46:10;17.23;;;2.93;;
12725;SDS011;6427;49.754;6.106;2023-02-01T07:48:38;18.83;;;3.43;;
12725;SDS011;6427;49.754;6.106;2023-02-01T07:51:10;13.57;;;3.20;;
12725;SDS011;6427;49.754;6.106;2023-02-01T07:53:37;15.17;;;3.27;;
12725;SDS011;6427;49.754;6.106;2023-02-01T07:56:08;16.93;;;3.17;;
12725;SDS011;6427;49.754;6.106;2023-02-01T07:58:31;13.50;;;3.40;;
12725;SDS011;6427;49.754;6.106;2023-02-01T08:01:00;21.92;;;5.15;;
12725;SDS011;6427;49.754;6.106;2023-02-01T08:03:49;18.87;;;3.57;;
12725;SDS011;6427;49.754;6.106;2023-02-01T08:06:13;18.90;;;3.93;;
12725;SDS011;6427;49.754;6.106;2023-02-01T08:08:41;18.70;;;4.30;;
12725;SDS011;6427;49.754;6.106;2023-02-01T08:11:08;27.07;;;6.97;;
12725;SDS011;6427;49.754;6.106;2023-02-01T08:13:36;14.67;;;4.63;;
12725;SDS011;6427;49.754;6.106;2023-02-01T08:16:05;13.67;;;3.40;;
12725;SDS011;6427;49.754;6.106;2023-02-01T08:18:32;25.33;;;4.97;;
12725;SDS011;6427;49.754;6.106;2023-02-01T08:21:03;20.40;;;5.32;;
12725;SDS011;6427;49.754;6.106;2023-02-01T08:23:43;17.00;;;3.70;;
12725;SDS011;6427;49.754;6.106;2023-02-01T08:26:16;22.25;;;5.07;;
12725;SDS011;6427;49.754;6.106;2023-02-01T08:28:45;27.50;;;8.20;;
12725;SDS011;6427;49.754;6.106;2023-02-01T08:31:14;24.13;;;4.40;;
12725;SDS011;6427;49.754;6.106;2023-02-01T08:33:42;19.60;;;4.33;;
12725;SDS011;6427;49.754;6.106;2023-02-01T08:36:10;20.20;;;4.63;;
12725;SDS011;6427;49.754;6.106;2023-02-01T08:38:37;16.73;;;4.77;;
12725;SDS011;6427;49.754;6.106;2023-02-01T08:41:05;38.03;;;11.88;;
12725;SDS011;6427;49.754;6.106;2023-02-01T08:43:32;20.73;;;5.97;;
12725;SDS011;6427;49.754;6.106;2023-02-01T08:46:00;29.13;;;9.80;;
12725;SDS011;6427;49.754;6.106;2023-02-01T08:48:28;20.90;;;7.80;;
12725;SDS011;6427;49.754;6.106;2023-02-01T08:50:55;29.43;;;9.23;;
12725;SDS011;6427;49.754;6.106;2023-02-01T08:53:24;14.10;;;3.67;;
12725;SDS011;6427;49.754;6.106;2023-02-01T08:55:51;21.90;;;8.00;;
12725;SDS011;6427;49.754;6.106;2023-02-01T08:58:19;19.77;;;4.13;;
12725;SDS011;6427;49.754;6.106;2023-02-01T09:00:47;20.93;;;6.67;;
12725;SDS011;6427;49.754;6.106;2023-02-01T09:03:15;18.12;;;4.53;;
12725;SDS011;6427;49.754;6.106;2023-02-01T09:05:43;19.77;;;4.70;;
12725;SDS011;6427;49.754;6.106;2023-02-01T09:08:11;21.83;;;6.33;;
12725;SDS011;6427;49.754;6.106;2023-02-01T09:10:38;20.97;;;4.13;;
12725;SDS011;6427;49.754;6.106;2023-02-01T09:13:06;18.73;;;5.57;;
12725;SDS011;6427;49.754;6.106;2023-02-01T09:15:34;14.70;;;3.83;;
12725;SDS011;6427;49.754;6.106;2023-02-01T09:18:01;17.43;;;3.73;;
12725;SDS011;6427;49.754;6.106;2023-02-01T09:20:28;17.43;;;3.83;;
12725;SDS011;6427;49.754;6.106;2023-02-01T09:22:56;18.33;;;3.60;;
12725;SDS011;6427;49.754;6.106;2023-02-01T09:25:24;31.77;;;4.00;;
12725;SDS011;6427;49.754;6.106;2023-02-01T09:27:52;17.50;;;4.13;;
12725;SDS011;6427;49.754;6.106;2023-02-01T09:30:20;10.67;;;3.10;;
12725;SDS011;6427;49.754;6.106;2023-02-01T09:32:48;21.90;;;3.40;;
12725;SDS011;6427;49.754;6.106;2023-02-01T09:35:15;18.50;;;3.53;;
12725;SDS011;6427;49.754;6.106;2023-02-01T09:37:43;22.73;;;4.13;;
12725;SDS011;6427;49.754;6.106;2023-02-01T09:40:12;15.67;;;3.30;;
12725;SDS011;6427;49.754;6.106;2023-02-01T09:45:51;13.63;;;2.87;;
12725;SDS011;6427;49.754;6.106;2023-02-01T09:48:36;17.33;;;3.27;;
12725;SDS011;6427;49.754;6.106;2023-02-01T09:51:04;13.07;;;3.90;;
12725;SDS011;6427;49.754;6.106;2023-02-01T09:53:33;18.80;;;3.20;;
12725;SDS011;6427;49.754;6.106;2023-02-01T09:56:04;14.60;;;2.93;;
12725;SDS011;6427;49.754;6.106;2023-02-01T10:01:03;18.35;;;4.10;;
12725;SDS011;6427;49.754;6.106;2023-02-01T10:03:28;12.67;;;3.30;;
12725;SDS011;6427;49.754;6.106;2023-02-01T10:06:05;17.43;;;3.80;;
12725;SDS011;6427;49.754;6.106;2023-02-01T10:08:40;15.73;;;4.03;;
12725;SDS011;6427;49.754;6.106;2023-02-01T10:11:13;13.53;;;3.73;;
12725;SDS011;6427;49.754;6.106;2023-02-01T10:21:42;10.90;;;3.00;;
12725;SDS011;6427;49.754;6.106;2023-02-01T10:24:33;11.57;;;2.60;;
12725;SDS011;6427;49.754;6.106;2023-02-01T10:27:19;10.30;;;2.77;;
12725;SDS011;6427;49.754;6.106;2023-02-01T10:29:36;11.50;;;2.80;;
12725;SDS011;6427;49.754;6.106;2023-02-01T10:32:13;16.00;;;3.35;;
12725;SDS011;6427;49.754;6.106;2023-02-01T10:34:39;10.33;;;2.60;;
12725;SDS011;6427;49.754;6.106;2023-02-01T10:39:42;20.07;;;2.93;;
12725;SDS011;6427;49.754;6.106;2023-02-01T10:42:11;14.90;;;2.93;;
12725;SDS011;6427;49.754;6.106;2023-02-01T10:44:40;14.03;;;3.40;;
12725;SDS011;6427;49.754;6.106;2023-02-01T10:47:08;14.27;;;3.67;;
12725;SDS011;6427;49.754;6.106;2023-02-01T10:49:47;16.03;;;3.40;;
12725;SDS011;6427;49.754;6.106;2023-02-01T10:52:18;12.73;;;3.97;;
12725;SDS011;6427;49.754;6.106;2023-02-01T10:54:44;12.63;;;3.67;;
12725;SDS011;6427;49.754;6.106;2023-02-01T10:57:22;17.93;;;3.70;;
12725;SDS011;6427;49.754;6.106;2023-02-01T10:59:51;17.97;;;2.77;;
12725;SDS011;6427;49.754;6.106;2023-02-01T11:02:26;11.37;;;3.00;;
12725;SDS011;6427;49.754;6.106;2023-02-01T11:05:04;17.10;;;3.60;;
12725;SDS011;6427;49.754;6.106;2023-02-01T11:07:27;10.57;;;2.53;;
12725;SDS011;6427;49.754;6.106;2023-02-01T11:09:55;15.10;;;3.43;;
12725;SDS011;6427;49.754;6.106;2023-02-01T11:12:24;11.27;;;2.67;;
12725;SDS011;6427;49.754;6.106;2023-02-01T11:15:01;18.93;;;3.63;;
12725;SDS011;6427;49.754;6.106;2023-02-01T11:17:33;19.17;;;3.17;;
12725;SDS011;6427;49.754;6.106;2023-02-01T11:20:01;12.80;;;2.90;;
12725;SDS011;6427;49.754;6.106;2023-02-01T11:22:27;11.27;;;2.77;;
12725;SDS011;6427;49.754;6.106;2023-02-01T11:24:55;15.57;;;3.13;;
12725;SDS011;6427;49.754;6.106;2023-02-01T11:27:23;16.83;;;2.63;;
12725;SDS011;6427;49.754;6.106;2023-02-01T11:29:51;18.47;;;3.43;;
12725;SDS011;6427;49.754;6.106;2023-02-01T11:32:19;13.17;;;2.50;;
12725;SDS011;6427;49.754;6.106;2023-02-01T11:34:50;15.20;;;3.00;;
12725;SDS011;6427;49.754;6.106;2023-02-01T11:37:18;12.37;;;2.63;;
12725;SDS011;6427;49.754;6.106;2023-02-01T11:39:44;12.55;;;3.22;;
12725;SDS011;6427;49.754;6.106;2023-02-01T11:42:13;16.57;;;3.43;;
12725;SDS011;6427;49.754;6.106;2023-02-01T11:44:41;21.47;;;3.03;;
12725;SDS011;6427;49.754;6.106;2023-02-01T11:47:21;17.13;;;3.27;;
12725;SDS011;6427;49.754;6.106;2023-02-01T11:50:01;15.83;;;2.87;;
12725;SDS011;6427;49.754;6.106;2023-02-01T11:52:35;17.27;;;3.90;;
12725;SDS011;6427;49.754;6.106;2023-02-01T11:57:51;18.33;;;3.63;;
12725;SDS011;6427;49.754;6.106;2023-02-01T12:00:33;15.50;;;3.40;;
12725;SDS011;6427;49.754;6.106;2023-02-01T12:06:08;15.17;;;2.90;;
12725;SDS011;6427;49.754;6.106;2023-02-01T12:24:59;16.47;;;2.53;;
12725;SDS011;6427;49.754;6.106;2023-02-01T12:27:55;18.67;;;2.37;;
12725;SDS011;6427;49.754;6.106;2023-02-01T12:36:19;8.37;;;2.27;;
12725;SDS011;6427;49.754;6.106;2023-02-01T12:39:18;12.90;;;2.47;;
12725;SDS011;6427;49.754;6.106;2023-02-01T12:41:47;11.33;;;2.50;;
12725;SDS011;6427;49.754;6.106;2023-02-01T12:46:58;10.47;;;2.37;;
12725;SDS011;6427;49.754;6.106;2023-02-01T12:49:30;16.57;;;2.93;;
12725;SDS011;6427;49.754;6.106;2023-02-01T12:52:16;12.63;;;2.30;;
12725;SDS011;6427;49.754;6.106;2023-02-01T12:54:42;15.53;;;2.53;;
12725;SDS011;6427;49.754;6.106;2023-02-01T12:57:52;9.20;;;2.63;;
12725;SDS011;6427;49.754;6.106;2023-02-01T12:59:54;10.73;;;2.40;;
12725;SDS011;6427;49.754;6.106;2023-02-01T13:05:03;12.87;;;3.77;;
12725;SDS011;6427;49.754;6.106;2023-02-01T13:07:49;12.67;;;2.57;;
12725;SDS011;6427;49.754;6.106;2023-02-01T13:10:18;10.93;;;2.47;;
12725;SDS011;6427;49.754;6.106;2023-02-01T13:13:11;16.17;;;2.77;;
12725;SDS011;6427;49.754;6.106;2023-02-01T13:15:48;13.40;;;2.80;;
12725;SDS011;6427;49.754;6.106;2023-02-01T13:18:13;18.57;;;3.80;;
12725;SDS011;6427;49.754;6.106;2023-02-01T13:20:40;14.63;;;3.73;;
12725;SDS011;6427;49.754;6.106;2023-02-01T13:23:08;11.17;;;2.80;;
12725;SDS011;6427;49.754;6.106;2023-02-01T13:25:37;13.60;;;3.40;;
12725;SDS011;6427;49.754;6.106;2023-02-01T13:28:06;12.83;;;2.97;;
12725;SDS011;6427;49.754;6.106;2023-02-01T13:30:39;11.17;;;2.17;;
12725;SDS011;6427;49.754;6.106;2023-02-01T13:41:02;12.20;;;2.30;;
12725;SDS011;6427;49.754;6.106;2023-02-01T13:43:22;15.30;;;3.15;;
12725;SDS011;6427;49.754;6.106;2023-02-01T13:45:53;10.77;;;2.70;;
12725;SDS011;6427;49.754;6.106;2023-02-01T13:48:36;13.90;;;2.40;;
12725;SDS011;6427;49.754;6.106;2023-02-01T13:50:52;9.50;;;2.20;;
12725;SDS011;6427;49.754;6.106;2023-02-01T13:53:20;8.33;;;2.33;;
12725;SDS011;6427;49.754;6.106;2023-02-01T13:55:59;17.03;;;2.80;;
12725;SDS011;6427;49.754;6.106;2023-02-01T13:58:33;9.80;;;2.23;;
12725;SDS011;6427;49.754;6.106;2023-02-01T14:03:55;11.27;;;2.47;;
12725;SDS011;6427;49.754;6.106;2023-02-01T14:11:50;10.27;;;2.10;;
12725;SDS011;6427;49.754;6.106;2023-02-01T14:16:42;10.93;;;2.20;;
12725;SDS011;6427;49.754;6.106;2023-02-01T14:21:51;9.20;;;2.17;;
12725;SDS011;6427;49.754;6.106;2023-02-01T14:24:25;14.53;;;2.63;;
12725;SDS011;6427;49.754;6.106;2023-02-01T14:27:01;9.00;;;2.47;;
12725;SDS011;6427;49.754;6.106;2023-02-01T14:29:32;15.70;;;2.33;;
12725;SDS011;6427;49.754;6.106;2023-02-01T14:34:30;12.80;;;2.20;;
12725;SDS011;6427;49.754;6.106;2023-02-01T14:37:22;14.03;;;1.97;;
12725;SDS011;6427;49.754;6.106;2023-02-01T14:39:49;19.60;;;2.40;;
12725;SDS011;6427;49.754;6.106;2023-02-01T14:42:38;11.13;;;3.07;;
12725;SDS011;6427;49.754;6.106;2023-02-01T14:44:47;10.00;;;2.07;;
12725;SDS011;6427;49.754;6.106;2023-02-01T14:49:54;16.90;;;3.37;;
12725;SDS011;6427;49.754;6.106;2023-02-01T14:52:20;12.13;;;2.83;;
12725;SDS011;6427;49.754;6.106;2023-02-01T14:54:49;12.17;;;2.50;;
12725;SDS011;6427;49.754;6.106;2023-02-01T14:57:15;10.70;;;2.80;;
12725;SDS011;6427;49.754;6.106;2023-02-01T14:59:45;16.57;;;2.70;;
12725;SDS011;6427;49.754;6.106;2023-02-01T15:02:24;14.90;;;2.60;;
12725;SDS011;6427;49.754;6.106;2023-02-01T15:04:47;12.10;;;2.43;;
12725;SDS011;6427;49.754;6.106;2023-02-01T15:07:15;15.83;;;2.70;;
12725;SDS011;6427;49.754;6.106;2023-02-01T15:09:44;11.33;;;2.50;;
12725;SDS011;6427;49.754;6.106;2023-02-01T15:14:39;9.80;;;2.17;;
12725;SDS011;6427;49.754;6.106;2023-02-01T15:17:19;15.85;;;3.45;;
12725;SDS011;6427;49.754;6.106;2023-02-01T15:19:55;13.67;;;3.03;;
12725;SDS011;6427;49.754;6.106;2023-02-01T15:22:25;13.33;;;2.63;;
12725;SDS011;6427;49.754;6.106;2023-02-01T15:24:55;15.93;;;3.13;;
12725;SDS011;6427;49.754;6.106;2023-02-01T15:27:23;15.03;;;2.60;;
12725;SDS011;6427;49.754;6.106;2023-02-01T15:29:51;12.83;;;2.57;;
12725;SDS011;6427;49.754;6.106;2023-02-01T15:32:36;9.03;;;2.80;;
12725;SDS011;6427;49.754;6.106;2023-02-01T15:38:20;11.83;;;2.73;;
12725;SDS011;6427;49.754;6.106;2023-02-01T15:43:47;10.60;;;2.90;;
12725;SDS011;6427;49.754;6.106;2023-02-01T15:46:17;9.10;;;2.03;;
12725;SDS011;6427;49.754;6.106;2023-02-01T15:48:51;12.43;;;3.10;;
12725;SDS011;6427;49.754;6.106;2023-02-01T15:51:18;17.00;;;3.20;;
12725;SDS011;6427;49.754;6.106;2023-02-01T15:53:46;10.03;;;2.30;;
12725;SDS011;6427;49.754;6.106;2023-02-01T15:56:12;12.33;;;2.33;;
12725;SDS011;6427;49.754;6.106;2023-02-01T15:58:40;12.50;;;2.30;;
12725;SDS011;6427;49.754;6.106;2023-02-01T16:01:10;15.43;;;2.40;;
12725;SDS011;6427;49.754;6.106;2023-02-01T16:06:09;7.97;;;2.60;;
12725;SDS011;6427;49.754;6.106;2023-02-01T16:08:48;12.90;;;2.00;;
12725;SDS011;6427;49.754;6.106;2023-02-01T16:13:37;14.77;;;2.30;;
12725;SDS011;6427;49.754;6.106;2023-02-01T16:16:05;10.40;;;2.60;;
12725;SDS011;6427;49.754;6.106;2023-02-01T16:18:32;12.50;;;3.07;;
12725;SDS011;6427;49.754;6.106;2023-02-01T16:21:01;10.50;;;2.40;;
12725;SDS011;6427;49.754;6.106;2023-02-01T16:23:28;11.17;;;2.77;;
12725;SDS011;6427;49.754;6.106;2023-02-01T16:25:56;16.63;;;2.70;;
12725;SDS011;6427;49.754;6.106;2023-02-01T16:28:23;13.73;;;2.87;;
12725;SDS011;6427;49.754;6.106;2023-02-01T16:30:51;9.83;;;2.30;;
12725;SDS011;6427;49.754;6.106;2023-02-01T16:33:19;13.50;;;2.90;;
12725;SDS011;6427;49.754;6.106;2023-02-01T16:35:46;14.90;;;3.00;;
12725;SDS011;6427;49.754;6.106;2023-02-01T16:38:15;14.97;;;3.17;;
12725;SDS011;6427;49.754;6.106;2023-02-01T16:40:42;17.97;;;2.77;;
12725;SDS011;6427;49.754;6.106;2023-02-01T16:43:14;14.63;;;2.50;;
12725;SDS011;6427;49.754;6.106;2023-02-01T16:45:48;17.13;;;2.50;;
12725;SDS011;6427;49.754;6.106;2023-02-01T16:48:19;20.57;;;3.37;;
12725;SDS011;6427;49.754;6.106;2023-02-01T16:50:51;12.57;;;2.60;;
12725;SDS011;6427;49.754;6.106;2023-02-01T16:53:18;7.43;;;2.87;;